EGLL

London Heathrow Airport

London, United Kingdom
METAR EGLL 172120Z AUTO 18007KT 160V220 9999 NCD 06/03 Q1023 NOSIG
Observed Flight Rules
Feb-17 @ 21:20 UTC (18 minutes ago) Visual Flight Rules
Wind Visibility Clouds
180° at 7 knots 10,000+ meters
  • Clear skies
Temperatures Readings
Current 6°C / 43°F
Dewpoint 3°C / 37°F
Humidity 81%
Altimeter 30.21" Hg
Pressure 1023 hPa
Elevation 24
METAR EGLL 172120Z AUTO 18007KT 160V220 9999 NCD 06/03 Q1023 NOSIG
Observed Flight Rules
Feb-17 @ 21:20 UTC
(18 minutes ago)
VFR
Wind Visibility
180° at 7 knots 10,000+ meters
Clouds
  • Clear skies
Temperature Dewpoint
6°C / 43°F 3°C / 37°F
Humidity Altimeter Pressure
81% 30.21" Hg 1023 hPa